createdAt,value
2019-03-17T00:01:24.937Z,98635.69
2019-03-17T00:06:28.121Z,98629.43
2019-03-17T00:11:31.188Z,98626.59
2019-03-17T00:16:34.520Z,98615.66
2019-03-17T00:21:37.490Z,98608.10
2019-03-17T00:26:40.519Z,98606.60
2019-03-17T00:31:43.656Z,98604.47
2019-03-17T00:36:46.626Z,98599.24
2019-03-17T00:41:49.766Z,98603.65
2019-03-17T00:46:52.861Z,98593.26
2019-03-17T00:51:56.190Z,98588.26
2019-03-17T00:56:59.256Z,98587.05
2019-03-17T01:02:02.345Z,98583.02
2019-03-17T01:07:05.616Z,98569.36
2019-03-17T01:12:08.710Z,98567.67
2019-03-17T01:17:11.828Z,98562.61
2019-03-17T01:22:15.049Z,98563.15
2019-03-17T01:27:18.418Z,98562.47
2019-03-17T01:32:22.074Z,98558.18
2019-03-17T01:37:25.128Z,98560.95
2019-03-17T01:42:28.201Z,98558.97
2019-03-17T01:47:31.220Z,98560.28
2019-03-17T01:52:34.172Z,98554.50
2019-03-17T01:57:37.206Z,98558.97
2019-03-17T02:02:40.285Z,98551.13
2019-03-17T02:07:43.627Z,98544.41
2019-03-17T02:12:46.676Z,98541.55
2019-03-17T02:17:49.623Z,98534.51
2019-03-17T02:22:52.857Z,98538.13
2019-03-17T02:27:55.824Z,98534.05
2019-03-17T02:32:58.940Z,98539.02
2019-03-17T02:38:02.061Z,98542.88
2019-03-17T02:43:05.226Z,98557.65
2019-03-17T02:48:08.484Z,98550.55
2019-03-17T02:53:11.638Z,98550.73
2019-03-17T02:58:14.803Z,98545.11
2019-03-17T03:03:18.108Z,98548.25
2019-03-17T03:08:21.133Z,98537.83
2019-03-17T03:13:24.240Z,98522.53
2019-03-17T03:18:27.225Z,98529.98
2019-03-17T03:23:30.311Z,98526.55
2019-03-17T03:28:33.484Z,98514.84
2019-03-17T03:33:36.673Z,98513.67
2019-03-17T03:38:39.820Z,98512.91
2019-03-17T03:43:42.770Z,98501.96
2019-03-17T03:48:45.757Z,98500.09
2019-03-17T03:53:48.986Z,98491.15
2019-03-17T03:58:52.438Z,98483.36
2019-03-17T04:03:55.615Z,98470.13
2019-03-17T04:08:58.897Z,98466.89
2019-03-17T04:14:02.138Z,98461.88
2019-03-17T04:19:05.247Z,98470.73
2019-03-17T04:24:08.290Z,98469.36
2019-03-17T04:29:11.277Z,98466.06
2019-03-17T04:34:14.388Z,98443.97
2019-03-17T04:39:17.568Z,98443.45
2019-03-17T04:44:21.304Z,98447.00
2019-03-17T04:49:24.808Z,98449.09
2019-03-17T04:54:27.914Z,98453.80
2019-03-17T04:59:31.123Z,98457.80
2019-03-17T05:04:34.321Z,98456.53
2019-03-17T05:09:37.458Z,98452.36
2019-03-17T05:14:40.680Z,98465.35
2019-03-17T05:19:43.632Z,98456.88
2019-03-17T05:24:46.877Z,98459.80
2019-03-17T05:29:50.354Z,98466.06
2019-03-17T05:34:53.722Z,98465.19
2019-03-17T05:39:56.820Z,98456.88
2019-03-17T05:45:00.379Z,98457.62
2019-03-17T05:50:04.775Z,98455.49
2019-03-17T05:55:08.139Z,98460.87
2019-03-17T06:00:12.782Z,98452.05
2019-03-17T06:05:15.931Z,98459.70
2019-03-17T06:10:19.146Z,98461.27
2019-03-17T06:15:22.207Z,98460.41
2019-03-17T06:20:25.191Z,98454.08
2019-03-17T06:25:28.517Z,98446.59
2019-03-17T06:30:31.781Z,98450.38
2019-03-17T06:35:34.740Z,98445.03
2019-03-17T06:40:37.961Z,98452.98
2019-03-17T06:45:41.013Z,98447.98
2019-03-17T06:50:44.223Z,98443.25
2019-03-17T06:55:47.340Z,98446.47
2019-03-17T07:00:50.440Z,98437.43
2019-03-17T07:05:53.567Z,98434.69
2019-03-17T07:10:56.664Z,98429.84
2019-03-17T07:15:59.772Z,98432.31
2019-03-17T07:21:03.067Z,98435.23
2019-03-17T07:26:06.467Z,98434.20
2019-03-17T07:31:09.678Z,98430.41
2019-03-17T07:36:12.649Z,98435.86
2019-03-17T07:41:15.946Z,98426.19
2019-03-17T07:46:19.123Z,98419.88
2019-03-17T07:51:22.541Z,98423.06
2019-03-17T07:56:25.968Z,98423.03
2019-03-17T08:01:29.691Z,98423.55
2019-03-17T08:06:32.673Z,98419.17
2019-03-17T08:11:35.890Z,98416.98
2019-03-17T08:16:39.463Z,98416.11
2019-03-17T08:21:43.386Z,98420.75
2019-03-17T08:26:46.901Z,98426.69
2019-03-17T08:31:50.185Z,98415.26
2019-03-17T08:36:53.167Z,98422.59
2019-03-17T08:41:56.148Z,98417.30
2019-03-17T08:46:59.283Z,98413.41
2019-03-17T08:52:02.366Z,98413.95
2019-03-17T08:57:05.423Z,98423.53
2019-03-17T09:02:09.027Z,98420.11
2019-03-17T09:07:12.339Z,98424.34
2019-03-17T09:12:15.446Z,98423.03
2019-03-17T09:17:18.970Z,98406.55
2019-03-17T09:22:22.110Z,98409.16
2019-03-17T09:27:25.183Z,98425.02
2019-03-17T09:32:28.709Z,98425.52
2019-03-17T09:37:31.906Z,98419.87
2019-03-17T09:42:34.969Z,98412.58
2019-03-17T09:47:40.944Z,98400.53
2019-03-17T09:52:43.242Z,98403.97
2019-03-17T09:57:46.235Z,98396.12
2019-03-17T10:02:49.519Z,98387.55
2019-03-17T10:07:52.541Z,98399.28
2019-03-17T10:12:55.712Z,98383.80
2019-03-17T10:17:59.025Z,98387.23
2019-03-17T10:23:02.060Z,98374.58
2019-03-17T10:28:05.545Z,98373.99
2019-03-17T10:33:08.645Z,98363.87
2019-03-17T10:38:11.813Z,98369.63
2019-03-17T10:43:14.877Z,98359.41
2019-03-17T10:48:17.981Z,98350.20
2019-03-17T10:53:21.396Z,98341.55
2019-03-17T10:58:24.908Z,98343.31
2019-03-17T11:03:28.438Z,98332.05
2019-03-17T11:08:31.617Z,98320.38
2019-03-17T11:13:34.755Z,98307.97
2019-03-17T11:18:37.866Z,98306.99
2019-03-17T11:23:40.864Z,98306.30
2019-03-17T11:28:44.243Z,98296.00
2019-03-17T11:33:47.503Z,98282.91
2019-03-17T11:38:50.538Z,98295.38
2019-03-17T11:43:53.696Z,98283.30
2019-03-17T11:48:56.955Z,98282.53
2019-03-17T11:54:00.018Z,98284.14
2019-03-17T11:59:03.003Z,98267.41
2019-03-17T12:04:06.124Z,98253.47
2019-03-17T12:09:09.293Z,98238.48
2019-03-17T12:14:12.252Z,98230.33
2019-03-17T12:19:15.521Z,98233.72
2019-03-17T12:24:18.757Z,98222.43
2019-03-17T12:29:22.037Z,98218.02
2019-03-17T12:34:28.597Z,98211.72
2019-03-17T12:39:30.253Z,98213.27
2019-03-17T12:44:33.487Z,98200.91
2019-03-17T12:49:36.625Z,98195.48
2019-03-17T12:54:39.829Z,98192.25
2019-03-17T12:59:42.898Z,98194.71
2019-03-17T13:04:46.016Z,98180.02
2019-03-17T13:09:49.217Z,98185.91
2019-03-17T13:14:52.588Z,98180.55
2019-03-17T13:19:55.792Z,98158.39
2019-03-17T13:24:58.772Z,98159.42
2019-03-17T13:30:01.769Z,98159.34
2019-03-17T13:35:05.455Z,98160.20
2019-03-17T13:40:10.571Z,98154.52
2019-03-17T13:45:13.829Z,98144.06
2019-03-17T13:50:16.984Z,98154.50
2019-03-17T13:55:20.164Z,98159.19
2019-03-17T14:00:23.146Z,98163.13
2019-03-17T14:05:26.526Z,98165.42
2019-03-17T14:10:40.354Z,98167.33
2019-03-17T14:15:34.799Z,98155.91
2019-03-17T14:20:37.905Z,98155.91
2019-03-17T14:25:40.945Z,98162.47
2019-03-17T14:30:44.335Z,98160.17
2019-03-17T14:35:47.666Z,98162.33
2019-03-17T14:40:53.948Z,98153.10
2019-03-17T14:45:56.233Z,98159.66
2019-03-17T14:50:59.582Z,98167.97
2019-03-17T14:56:02.942Z,98154.02
2019-03-17T15:01:06.190Z,98160.95
2019-03-17T15:06:09.190Z,98172.97
2019-03-17T15:11:12.293Z,98189.52
2019-03-17T15:16:15.495Z,98190.79
2019-03-17T15:21:18.633Z,98198.14
2019-03-17T15:26:21.765Z,98192.48
2019-03-17T15:31:25.189Z,98190.23
2019-03-17T15:36:28.448Z,98195.98
2019-03-17T15:41:31.674Z,98192.32
2019-03-17T15:46:34.921Z,98193.28
2019-03-17T15:51:38.088Z,98197.52
2019-03-17T15:56:41.402Z,98189.63
2019-03-17T16:01:44.549Z,98197.20
2019-03-17T16:06:47.613Z,98196.89
2019-03-17T16:11:50.720Z,98199.63
2019-03-17T16:16:53.849Z,98195.56
2019-03-17T16:21:57.038Z,98207.47
2019-03-17T16:27:00.242Z,98198.66
2019-03-17T16:32:03.570Z,98186.11
2019-03-17T16:37:06.690Z,98183.96
2019-03-17T16:42:10.182Z,98182.60
2019-03-17T16:47:13.181Z,98175.54
2019-03-17T16:52:16.641Z,98174.30
2019-03-17T16:57:19.723Z,98173.30
2019-03-17T17:02:22.776Z,98175.45
2019-03-17T17:07:25.889Z,98174.33
2019-03-17T17:12:28.910Z,98172.91
2019-03-17T17:17:32.097Z,98177.68
2019-03-17T17:22:35.076Z,98176.02
2019-03-17T17:27:38.435Z,98159.43
2019-03-17T17:32:41.856Z,98155.58
2019-03-17T17:37:44.822Z,98158.30
2019-03-17T17:42:48.111Z,98155.64
2019-03-17T17:47:51.203Z,98157.14
2019-03-17T17:52:54.683Z,98158.90
2019-03-17T17:57:57.765Z,98143.45
2019-03-17T18:03:00.855Z,98135.53
2019-03-17T18:08:03.831Z,98141.57
2019-03-17T18:13:06.969Z,98137.62
2019-03-17T18:18:10.045Z,98133.62
2019-03-17T18:23:18.198Z,98133.19
2019-03-17T18:28:18.446Z,98144.75
2019-03-17T18:33:21.663Z,98140.85
2019-03-17T18:38:25.017Z,98141.35
2019-03-17T18:43:28.320Z,98142.45
2019-03-17T18:48:31.580Z,98155.46
2019-03-17T18:53:34.719Z,98151.74
2019-03-17T18:58:37.798Z,98145.31
2019-03-17T19:03:41.281Z,98147.70
2019-03-17T19:08:44.427Z,98165.45
2019-03-17T19:13:47.635Z,98165.50
2019-03-17T19:18:50.665Z,98166.78
2019-03-17T19:23:53.846Z,98166.38
2019-03-17T19:28:57.177Z,98165.36
2019-03-17T19:34:00.522Z,98171.95
2019-03-17T19:39:06.536Z,98175.97
2019-03-17T19:44:09.794Z,98167.55
2019-03-17T19:49:13.029Z,98169.38
2019-03-17T19:54:16.309Z,98163.66
2019-03-17T19:59:19.966Z,98156.06
2019-03-17T20:04:30.353Z,98150.06
2019-03-17T20:09:28.803Z,98157.67
2019-03-17T20:14:32.113Z,98154.72
2019-03-17T20:19:35.324Z,98149.63
2019-03-17T20:24:39.299Z,98149.08
2019-03-17T20:29:42.476Z,98138.24
2019-03-17T20:34:45.964Z,98129.92
2019-03-17T20:39:49.366Z,98124.52
2019-03-17T20:44:52.723Z,98137.83
2019-03-17T20:49:56.029Z,98140.28
2019-03-17T20:54:59.708Z,98143.34
2019-03-17T21:00:03.777Z,98137.20
2019-03-17T21:05:08.362Z,98133.13
2019-03-17T21:10:11.656Z,98133.28
2019-03-17T21:15:14.861Z,98133.97
2019-03-17T21:20:17.933Z,98134.13
2019-03-17T21:25:21.402Z,98127.95
2019-03-17T21:30:24.753Z,98136.12
2019-03-17T21:35:28.354Z,98130.14
2019-03-17T21:40:31.590Z,98123.02
2019-03-17T21:45:35.859Z,98122.30
2019-03-17T21:50:39.047Z,98125.69
2019-03-17T21:55:42.468Z,98120.60
2019-03-17T22:00:45.827Z,98117.22
2019-03-17T22:05:49.500Z,98122.33
2019-03-17T22:10:52.824Z,98106.90
2019-03-17T22:15:56.163Z,98111.63
2019-03-17T22:20:59.455Z,98112.89
2019-03-17T22:26:02.967Z,98109.55
2019-03-17T22:31:06.178Z,98115.12
2019-03-17T22:36:09.224Z,98123.14
2019-03-17T22:41:12.482Z,98111.55
2019-03-17T22:46:15.815Z,98110.22
2019-03-17T22:51:19.503Z,98111.84
2019-03-17T22:56:22.642Z,98114.17
2019-03-17T23:01:26.692Z,98114.77
2019-03-17T23:06:30.770Z,98099.60
2019-03-17T23:11:34.807Z,98102.67
2019-03-17T23:16:39.708Z,98102.02
2019-03-17T23:21:43.664Z,98116.98
2019-03-17T23:26:47.611Z,98139.55
2019-03-17T23:31:52.038Z,98209.42
2019-03-17T23:36:55.852Z,98228.20
2019-03-17T23:41:59.454Z,98245.83
2019-03-17T23:47:03.563Z,98264.67
2019-03-17T23:52:07.523Z,98292.66
2019-03-17T23:57:10.992Z,98311.22
